Time;durP1;ratioP1;P1;durP2;ratioP2;P2;SDS_P1;SDS_P2;PMS_P1;PMS_P2;Temp;Humidity;BMP_temperature;BMP_pressure;BME280_temperature;BME280_humidity;BME280_pressure;Samples;Min_cycle;Max_cycle;Signal;HPM_P1;HPM_P2
2022/09/25 00:01:40;;;;;;;;;;;21.00;40.90;;;;;;485355;245;1248;-51
2022/09/25 00:03:41;;;;;;;;;;;21.00;40.90;;;;;;485432;245;1357;-51
2022/09/25 00:05:42;;;;;;;;;;;21.00;41.00;;;;;;485308;245;1264;-51
2022/09/25 00:07:44;;;;;;;;;;;21.00;41.00;;;;;;485813;245;1114;-50
2022/09/25 00:09:45;;;;;;;;;;;21.00;41.00;;;;;;485783;245;1390;-52
2022/09/25 00:11:46;;;;;;;;;;;21.00;41.10;;;;;;485532;245;2188;-51
2022/09/25 00:13:48;;;;;;;;;;;21.00;41.00;;;;;;485757;245;1383;-51
2022/09/25 00:15:49;;;;;;;;;;;21.00;41.10;;;;;;485756;245;1302;-50
2022/09/25 00:17:50;;;;;;;;;;;21.00;41.10;;;;;;485634;245;1289;-50
2022/09/25 00:19:52;;;;;;;;;;;21.00;41.10;;;;;;485579;245;1249;-50
2022/09/25 00:21:53;;;;;;;;;;;21.00;41.20;;;;;;485304;245;1296;-51
2022/09/25 00:23:54;;;;;;;;;;;21.00;41.20;;;;;;485752;245;1494;-50
2022/09/25 00:25:56;;;;;;;;;;;21.00;41.10;;;;;;485776;245;1309;-51
2022/09/25 00:27:57;;;;;;;;;;;21.00;41.20;;;;;;485758;245;1295;-50
2022/09/25 00:29:59;;;;;;;;;;;21.00;41.30;;;;;;485764;245;1356;-50
2022/09/25 00:32:00;;;;;;;;;;;21.00;41.30;;;;;;485780;245;2155;-50
2022/09/25 00:34:01;;;;;;;;;;;21.00;41.30;;;;;;485392;245;1256;-50
2022/09/25 00:36:05;;;;;;;;;;;21.00;41.40;;;;;;485399;245;1254;-51
2022/09/25 00:38:05;;;;;;;;;;;21.00;41.40;;;;;;485460;246;2260;-50
2022/09/25 00:40:06;;;;;;;;;;;21.00;41.40;;;;;;485791;245;1252;-50
2022/09/25 00:42:08;;;;;;;;;;;21.00;41.40;;;;;;485350;245;1356;-51
2022/09/25 00:44:09;;;;;;;;;;;21.00;41.40;;;;;;485433;245;1230;-50
2022/09/25 00:46:10;;;;;;;;;;;21.00;41.50;;;;;;485780;245;1152;-50
2022/09/25 00:48:12;;;;;;;;;;;21.00;41.50;;;;;;485333;245;1264;-51
2022/09/25 00:50:15;;;;;;;;;;;21.00;41.50;;;;;;485461;245;1258;-51
2022/09/25 00:52:14;;;;;;;;;;;21.00;41.50;;;;;;485231;246;2191;-50
2022/09/25 00:54:15;;;;;;;;;;;21.00;41.50;;;;;;485352;245;1166;-51
2022/09/25 00:56:17;;;;;;;;;;;21.00;41.50;;;;;;485802;245;1314;-51
2022/09/25 00:58:18;;;;;;;;;;;21.00;41.60;;;;;;485504;245;1362;-51
2022/09/25 01:00:19;;;;;;;;;;;21.00;41.60;;;;;;485630;245;1050;-51
2022/09/25 01:02:21;;;;;;;;;;;21.00;41.60;;;;;;485809;245;1090;-50
2022/09/25 01:04:22;;;;;;;;;;;21.00;41.60;;;;;;485368;245;1093;-50
2022/09/25 01:06:23;;;;;;;;;;;21.00;41.50;;;;;;485405;245;1339;-51
2022/09/25 01:08:25;;;;;;;;;;;21.00;41.60;;;;;;485369;245;1120;-51
2022/09/25 01:10:26;;;;;;;;;;;21.00;41.60;;;;;;485732;245;1206;-51
2022/09/25 01:12:28;;;;;;;;;;;21.00;41.60;;;;;;485285;245;2160;-51
2022/09/25 01:14:30;;;;;;;;;;;21.00;41.70;;;;;;485362;245;1306;-50
2022/09/25 01:16:30;;;;;;;;;;;21.00;41.70;;;;;;485317;246;2431;-51
2022/09/25 01:18:33;;;;;;;;;;;21.00;41.70;;;;;;485793;245;1129;-50
2022/09/25 01:20:33;;;;;;;;;;;21.00;41.70;;;;;;485316;246;2402;-50
2022/09/25 01:22:34;;;;;;;;;;;21.00;41.70;;;;;;485212;245;1340;-50
2022/09/25 01:24:35;;;;;;;;;;;21.00;41.70;;;;;;485788;245;1289;-51
2022/09/25 01:26:37;;;;;;;;;;;21.00;41.80;;;;;;485184;245;1334;-50
2022/09/25 01:28:38;;;;;;;;;;;21.00;41.80;;;;;;485794;245;1306;-51
2022/09/25 01:30:39;;;;;;;;;;;20.90;41.80;;;;;;485457;245;1214;-51
2022/09/25 01:32:41;;;;;;;;;;;21.00;41.80;;;;;;485787;245;2194;-51
2022/09/25 01:34:42;;;;;;;;;;;20.90;41.80;;;;;;485761;245;1192;-51
2022/09/25 01:36:43;;;;;;;;;;;20.90;41.80;;;;;;485413;245;1268;-51
2022/09/25 01:38:45;;;;;;;;;;;20.90;41.80;;;;;;485594;245;1221;-51
2022/09/25 01:40:46;;;;;;;;;;;20.90;41.80;;;;;;485489;245;1197;-50
2022/09/25 01:42:48;;;;;;;;;;;21.00;41.90;;;;;;485350;245;1239;-51
2022/09/25 01:44:50;;;;;;;;;;;20.90;41.90;;;;;;485329;245;1258;-51
2022/09/25 01:46:51;;;;;;;;;;;21.00;41.90;;;;;;485783;245;1282;-51
2022/09/25 01:48:52;;;;;;;;;;;21.00;41.90;;;;;;485792;245;1238;-51
2022/09/25 01:50:54;;;;;;;;;;;21.00;41.90;;;;;;485679;245;1303;-51
2022/09/25 01:52:55;;;;;;;;;;;21.00;41.90;;;;;;485810;245;2167;-51
2022/09/25 01:54:57;;;;;;;;;;;21.00;42.00;;;;;;485369;245;1252;-50
2022/09/25 01:56:58;;;;;;;;;;;21.00;41.90;;;;;;485334;245;2644;-51
2022/09/25 01:58:59;;;;;;;;;;;21.00;41.90;;;;;;485796;245;1307;-50
2022/09/25 02:01:00;;;;;;;;;;;21.00;42.00;;;;;;485374;245;1273;-51
2022/09/25 02:03:02;;;;;;;;;;;20.90;42.00;;;;;;485376;245;1350;-51
2022/09/25 02:05:03;;;;;;;;;;;21.00;42.00;;;;;;485795;245;1230;-51
2022/09/25 02:07:04;;;;;;;;;;;21.00;42.00;;;;;;485454;245;1358;-50
2022/09/25 02:09:06;;;;;;;;;;;21.00;42.00;;;;;;485356;245;1325;-49
2022/09/25 02:11:07;;;;;;;;;;;21.00;42.00;;;;;;485372;245;1228;-51
2022/09/25 02:13:08;;;;;;;;;;;21.00;42.00;;;;;;485825;245;2143;-51
2022/09/25 02:15:09;;;;;;;;;;;21.00;42.10;;;;;;485636;245;1436;-50
2022/09/25 02:17:11;;;;;;;;;;;21.00;42.10;;;;;;485354;245;1360;-50
2022/09/25 02:21:32;;;;;;;;;;;21.00;42.10;;;;;;485612;246;1459;-51
2022/09/25 02:23:33;;;;;;;;;;;21.00;42.10;;;;;;485414;245;1249;-50
2022/09/25 02:25:34;;;;;;;;;;;21.00;42.10;;;;;;485375;245;1246;-50
2022/09/25 02:27:36;;;;;;;;;;;20.90;42.10;;;;;;485747;245;1277;-50
2022/09/25 02:29:37;;;;;;;;;;;21.00;42.20;;;;;;485739;245;1291;-50
2022/09/25 02:31:39;;;;;;;;;;;20.90;42.10;;;;;;485711;245;1431;-50
2022/09/25 02:33:39;;;;;;;;;;;20.90;42.20;;;;;;485279;245;2203;-51
2022/09/25 02:35:41;;;;;;;;;;;20.90;42.20;;;;;;485762;245;1337;-52
2022/09/25 02:37:42;;;;;;;;;;;20.90;42.20;;;;;;485326;245;1321;-51
2022/09/25 02:39:44;;;;;;;;;;;20.90;42.20;;;;;;485390;245;1338;-49
2022/09/25 02:41:45;;;;;;;;;;;21.00;42.30;;;;;;485799;245;1351;-50
2022/09/25 02:43:46;;;;;;;;;;;20.90;42.20;;;;;;485326;245;1263;-51
2022/09/25 02:45:49;;;;;;;;;;;20.90;42.20;;;;;;485363;245;1100;-51
2022/09/25 02:47:50;;;;;;;;;;;20.90;42.20;;;;;;485295;246;1439;-51
2022/09/25 02:49:51;;;;;;;;;;;20.90;42.30;;;;;;485585;245;1234;-51
2022/09/25 02:51:52;;;;;;;;;;;20.90;42.30;;;;;;485657;245;1265;-50
2022/09/25 02:53:54;;;;;;;;;;;20.90;42.20;;;;;;485793;245;2116;-51
2022/09/25 02:55:55;;;;;;;;;;;20.90;42.30;;;;;;485757;245;1275;-51
2022/09/25 02:57:56;;;;;;;;;;;20.90;42.30;;;;;;485604;245;1177;-51
2022/09/25 02:59:58;;;;;;;;;;;21.00;42.40;;;;;;485407;245;1258;-51
2022/09/25 03:01:59;;;;;;;;;;;20.90;42.30;;;;;;485426;245;1233;-51
2022/09/25 03:04:00;;;;;;;;;;;20.90;42.40;;;;;;485770;245;1368;-50
2022/09/25 03:06:02;;;;;;;;;;;20.90;42.40;;;;;;485763;245;1215;-50
2022/09/25 03:10:22;;;;;;;;;;;20.90;42.30;;;;;;485721;246;1334;-50
2022/09/25 03:12:24;;;;;;;;;;;20.90;42.40;;;;;;485375;245;2184;-51
2022/09/25 03:14:25;;;;;;;;;;;20.90;42.40;;;;;;485724;245;1272;-51
2022/09/25 03:16:26;;;;;;;;;;;20.90;42.40;;;;;;485623;245;1360;-51
2022/09/25 03:18:28;;;;;;;;;;;20.90;42.40;;;;;;485721;245;1348;-51
2022/09/25 03:20:29;;;;;;;;;;;20.90;42.40;;;;;;485233;245;1416;-50
2022/09/25 03:22:30;;;;;;;;;;;20.90;42.40;;;;;;485530;245;1279;-50
2022/09/25 03:24:32;;;;;;;;;;;20.90;42.40;;;;;;485707;245;1344;-50
2022/09/25 03:26:33;;;;;;;;;;;20.90;42.40;;;;;;485766;245;1370;-51
2022/09/25 03:28:34;;;;;;;;;;;20.90;42.40;;;;;;485760;246;1224;-50
2022/09/25 03:30:37;;;;;;;;;;;20.90;42.40;;;;;;485746;245;1312;-51
2022/09/25 03:32:38;;;;;;;;;;;20.90;42.50;;;;;;485302;245;2191;-51
2022/09/25 03:34:39;;;;;;;;;;;20.90;42.40;;;;;;485314;245;1241;-50
2022/09/25 03:36:40;;;;;;;;;;;20.90;42.50;;;;;;485671;245;1289;-51
2022/09/25 03:38:42;;;;;;;;;;;20.90;42.50;;;;;;485309;245;1246;-51
2022/09/25 03:40:43;;;;;;;;;;;20.90;42.50;;;;;;485757;245;1572;-51
2022/09/25 03:42:44;;;;;;;;;;;20.90;42.50;;;;;;485766;245;1291;-49
2022/09/25 03:44:46;;;;;;;;;;;20.90;42.40;;;;;;485571;245;1263;-51
2022/09/25 03:46:47;;;;;;;;;;;20.90;42.50;;;;;;485256;245;1324;-51
2022/09/25 03:48:48;;;;;;;;;;;20.90;42.50;;;;;;485313;245;1249;-51
2022/09/25 03:50:50;;;;;;;;;;;20.90;42.60;;;;;;485605;245;1375;-51
2022/09/25 03:52:51;;;;;;;;;;;20.90;42.60;;;;;;485548;245;2168;-50
2022/09/25 03:54:52;;;;;;;;;;;20.90;42.60;;;;;;485771;245;1316;-51
2022/09/25 03:56:54;;;;;;;;;;;20.90;42.50;;;;;;485345;245;1308;-51
2022/09/25 03:58:55;;;;;;;;;;;20.90;42.60;;;;;;485478;245;1224;-50
2022/09/25 04:00:56;;;;;;;;;;;20.90;42.60;;;;;;485317;245;1350;-51
2022/09/25 04:02:58;;;;;;;;;;;20.90;42.60;;;;;;485776;245;1337;-51
2022/09/25 04:04:59;;;;;;;;;;;20.90;42.60;;;;;;485775;245;1334;-50
2022/09/25 04:07:00;;;;;;;;;;;20.90;42.60;;;;;;485404;245;1262;-50
2022/09/25 04:09:01;;;;;;;;;;;20.90;42.60;;;;;;485334;245;1232;-50
2022/09/25 04:11:03;;;;;;;;;;;20.90;42.60;;;;;;485721;245;1263;-51
2022/09/25 04:13:04;;;;;;;;;;;20.90;42.60;;;;;;485294;245;2188;-50
2022/09/25 04:15:06;;;;;;;;;;;20.90;42.60;;;;;;485536;245;1283;-50
2022/09/25 04:17:07;;;;;;;;;;;20.90;42.60;;;;;;485770;245;1343;-50
2022/09/25 04:19:08;;;;;;;;;;;20.90;42.60;;;;;;485328;245;1258;-51
2022/09/25 04:21:10;;;;;;;;;;;20.90;42.70;;;;;;485318;245;1521;-51
2022/09/25 04:23:11;;;;;;;;;;;20.90;42.70;;;;;;485592;245;1526;-50
2022/09/25 04:25:13;;;;;;;;;;;20.90;42.70;;;;;;485773;245;1279;-51
2022/09/25 04:27:13;;;;;;;;;;;21.00;42.70;;;;;;485323;245;1324;-51
2022/09/25 04:29:15;;;;;;;;;;;20.90;42.70;;;;;;485319;245;1326;-51
2022/09/25 04:31:16;;;;;;;;;;;20.90;42.70;;;;;;485781;245;1317;-51
2022/09/25 04:35:37;;;;;;;;;;;20.90;42.70;;;;;;485566;246;1266;-51
2022/09/25 04:37:38;;;;;;;;;;;20.90;42.70;;;;;;485675;245;1273;-50
2022/09/25 04:39:39;;;;;;;;;;;20.90;42.70;;;;;;485473;245;1312;-50
2022/09/25 04:41:42;;;;;;;;;;;20.90;42.60;;;;;;485768;245;1337;-50
2022/09/25 04:43:43;;;;;;;;;;;21.00;42.40;;;;;;485505;245;1900;-50
2022/09/25 04:45:46;;;;;;;;;;;20.90;42.40;;;;;;485758;245;1203;-51
2022/09/25 04:47:45;;;;;;;;;;;21.00;42.30;;;;;;485659;246;2408;-51
2022/09/25 04:49:46;;;;;;;;;;;21.00;42.30;;;;;;485771;245;1288;-51
2022/09/25 04:51:48;;;;;;;;;;;21.00;42.20;;;;;;485333;245;1317;-50
2022/09/25 04:53:49;;;;;;;;;;;21.00;42.20;;;;;;485518;245;2191;-51
2022/09/25 04:55:51;;;;;;;;;;;21.00;42.30;;;;;;485773;245;1277;-50
2022/09/25 04:57:52;;;;;;;;;;;21.00;42.30;;;;;;485705;245;1221;-51
2022/09/25 04:59:53;;;;;;;;;;;21.00;42.10;;;;;;485303;245;1250;-51
2022/09/25 05:01:54;;;;;;;;;;;21.00;42.20;;;;;;485784;245;1245;-50
2022/09/25 05:03:56;;;;;;;;;;;21.00;42.00;;;;;;485741;245;1323;-51
2022/09/25 05:05:58;;;;;;;;;;;21.00;42.00;;;;;;485778;245;1229;-50
2022/09/25 05:07:58;;;;;;;;;;;21.00;42.00;;;;;;485291;245;1596;-51
2022/09/25 05:10:00;;;;;;;;;;;21.00;41.90;;;;;;485301;245;1269;-51
2022/09/25 05:12:01;;;;;;;;;;;21.00;41.80;;;;;;485721;245;1185;-50
2022/09/25 05:14:02;;;;;;;;;;;21.00;41.80;;;;;;485751;245;2143;-51
2022/09/25 05:16:04;;;;;;;;;;;21.00;41.70;;;;;;485339;245;1311;-51
2022/09/25 05:18:05;;;;;;;;;;;21.00;41.70;;;;;;485339;245;1333;-51
2022/09/25 05:20:06;;;;;;;;;;;21.00;41.70;;;;;;485762;245;1328;-50
2022/09/25 05:22:08;;;;;;;;;;;21.00;41.60;;;;;;485487;245;1287;-50
2022/09/25 05:24:09;;;;;;;;;;;21.00;41.60;;;;;;485566;245;1268;-50
2022/09/25 05:26:10;;;;;;;;;;;21.00;41.60;;;;;;485787;245;1248;-51
2022/09/25 05:28:12;;;;;;;;;;;21.00;41.50;;;;;;485760;245;1202;-50
2022/09/25 05:30:13;;;;;;;;;;;21.10;41.50;;;;;;485612;245;1275;-51
2022/09/25 05:32:14;;;;;;;;;;;21.00;41.40;;;;;;485595;245;1264;-50
2022/09/25 05:34:16;;;;;;;;;;;21.10;41.40;;;;;;485759;245;2151;-50
2022/09/25 05:36:17;;;;;;;;;;;21.00;41.40;;;;;;485628;245;1453;-51
2022/09/25 05:38:18;;;;;;;;;;;21.10;41.40;;;;;;485637;245;1241;-50
2022/09/25 05:40:20;;;;;;;;;;;21.00;41.30;;;;;;485345;245;1304;-50
2022/09/25 05:42:22;;;;;;;;;;;21.00;41.30;;;;;;485789;245;1311;-52
2022/09/25 05:44:24;;;;;;;;;;;21.00;41.30;;;;;;485784;245;1284;-50
2022/09/25 05:46:24;;;;;;;;;;;21.00;41.30;;;;;;485255;246;2453;-51
2022/09/25 05:48:25;;;;;;;;;;;21.00;41.20;;;;;;485803;245;1277;-50
2022/09/25 05:50:27;;;;;;;;;;;21.00;41.20;;;;;;485777;245;1264;-51
2022/09/25 05:52:28;;;;;;;;;;;21.00;41.20;;;;;;485738;245;1298;-51
2022/09/25 05:54:29;;;;;;;;;;;21.00;41.10;;;;;;485459;245;2191;-51
2022/09/25 05:56:31;;;;;;;;;;;21.00;41.10;;;;;;485808;245;1289;-50
2022/09/25 05:58:33;;;;;;;;;;;21.00;41.10;;;;;;485410;245;1272;-51
2022/09/25 06:00:34;;;;;;;;;;;21.00;41.00;;;;;;485416;245;1262;-50
2022/09/25 06:02:35;;;;;;;;;;;21.00;41.10;;;;;;485787;245;1162;-50
2022/09/25 06:04:37;;;;;;;;;;;21.10;41.00;;;;;;485777;245;1288;-50
2022/09/25 06:06:38;;;;;;;;;;;21.00;40.90;;;;;;485552;245;1307;-50
2022/09/25 06:08:39;;;;;;;;;;;21.00;40.90;;;;;;485726;245;1308;-50
2022/09/25 06:10:40;;;;;;;;;;;21.00;40.90;;;;;;485386;245;1196;-51
2022/09/25 06:12:42;;;;;;;;;;;21.00;40.90;;;;;;485836;245;1298;-51
2022/09/25 06:14:43;;;;;;;;;;;21.10;40.90;;;;;;485324;245;2723;-50
2022/09/25 06:16:44;;;;;;;;;;;21.10;40.90;;;;;;485811;245;1310;-50
2022/09/25 06:18:46;;;;;;;;;;;21.00;40.80;;;;;;485348;245;1288;-50
2022/09/25 06:20:48;;;;;;;;;;;21.00;40.80;;;;;;485798;245;1375;-50
2022/09/25 06:22:49;;;;;;;;;;;21.00;40.80;;;;;;485779;245;1352;-50
2022/09/25 06:24:50;;;;;;;;;;;21.10;40.80;;;;;;485422;245;1248;-50
2022/09/25 06:26:52;;;;;;;;;;;21.10;40.80;;;;;;485505;245;1289;-51
2022/09/25 06:28:53;;;;;;;;;;;21.10;40.70;;;;;;485715;245;1289;-50
2022/09/25 06:30:54;;;;;;;;;;;21.10;40.70;;;;;;485338;245;1319;-50
2022/09/25 06:32:55;;;;;;;;;;;21.10;40.70;;;;;;485346;245;1226;-50
2022/09/25 06:34:57;;;;;;;;;;;21.10;40.60;;;;;;485813;245;2186;-50
2022/09/25 06:36:58;;;;;;;;;;;21.00;40.70;;;;;;485712;245;1252;-50
2022/09/25 06:39:00;;;;;;;;;;;21.00;40.80;;;;;;485379;245;1214;-50
2022/09/25 06:41:01;;;;;;;;;;;21.10;40.80;;;;;;485419;245;1242;-50
2022/09/25 06:43:02;;;;;;;;;;;21.10;40.70;;;;;;485815;245;1229;-50
2022/09/25 06:45:03;;;;;;;;;;;21.00;40.70;;;;;;485502;245;1037;-51
2022/09/25 06:47:05;;;;;;;;;;;21.00;40.70;;;;;;485807;245;1278;-51
2022/09/25 06:49:06;;;;;;;;;;;21.10;40.70;;;;;;485805;245;1234;-50
2022/09/25 06:51:08;;;;;;;;;;;21.10;40.60;;;;;;485756;245;1224;-50
2022/09/25 06:53:09;;;;;;;;;;;21.10;40.60;;;;;;485540;245;1371;-51
2022/09/25 06:55:10;;;;;;;;;;;21.10;40.60;;;;;;485346;245;2187;-50
2022/09/25 06:57:12;;;;;;;;;;;21.10;40.60;;;;;;485443;245;1557;-51
2022/09/25 06:59:13;;;;;;;;;;;21.10;40.50;;;;;;485315;245;1907;-51
2022/09/25 07:01:14;;;;;;;;;;;21.10;40.50;;;;;;485336;245;1262;-50
2022/09/25 07:05:35;;;;;;;;;;;21.00;40.40;;;;;;485780;246;1217;-51
2022/09/25 07:07:36;;;;;;;;;;;21.10;40.50;;;;;;485775;245;1291;-51
2022/09/25 07:09:38;;;;;;;;;;;21.00;40.40;;;;;;485295;245;1315;-51
2022/09/25 07:11:42;;;;;;;;;;;21.00;40.40;;;;;;485320;245;1486;-51
2022/09/25 07:13:41;;;;;;;;;;;21.10;40.50;;;;;;485422;246;2147;-51
2022/09/25 07:15:42;;;;;;;;;;;21.00;40.40;;;;;;485748;245;1366;-51
2022/09/25 07:17:43;;;;;;;;;;;21.10;40.40;;;;;;485257;245;1286;-50
2022/09/25 07:19:45;;;;;;;;;;;21.00;40.30;;;;;;485279;245;1369;-51
2022/09/25 07:21:46;;;;;;;;;;;21.00;40.30;;;;;;485303;245;1312;-51
2022/09/25 07:23:48;;;;;;;;;;;21.10;40.30;;;;;;485325;245;1371;-50
2022/09/25 07:25:49;;;;;;;;;;;21.10;40.30;;;;;;485289;245;1346;-50
2022/09/25 07:27:50;;;;;;;;;;;21.10;40.30;;;;;;485326;245;1325;-50
2022/09/25 07:29:52;;;;;;;;;;;21.10;40.20;;;;;;485759;245;1271;-51
2022/09/25 07:31:53;;;;;;;;;;;21.10;40.30;;;;;;485330;245;1251;-51
2022/09/25 07:33:54;;;;;;;;;;;21.00;40.20;;;;;;485324;245;2192;-51
2022/09/25 07:35:56;;;;;;;;;;;21.10;40.20;;;;;;485802;245;1199;-51
2022/09/25 07:37:57;;;;;;;;;;;21.10;40.10;;;;;;485790;245;1301;-51
2022/09/25 07:39:58;;;;;;;;;;;21.10;40.20;;;;;;485394;245;1258;-50
2022/09/25 07:42:00;;;;;;;;;;;21.10;40.10;;;;;;485348;245;1334;-50
2022/09/25 07:44:01;;;;;;;;;;;21.10;40.20;;;;;;485704;245;1319;-51
2022/09/25 07:46:02;;;;;;;;;;;21.10;40.20;;;;;;485771;245;1259;-51
2022/09/25 07:48:05;;;;;;;;;;;21.10;40.20;;;;;;485754;245;1395;-51
2022/09/25 07:50:05;;;;;;;;;;;21.00;40.20;;;;;;485223;245;2298;-51
2022/09/25 07:52:06;;;;;;;;;;;21.10;40.30;;;;;;485757;245;1274;-51
2022/09/25 07:54:08;;;;;;;;;;;21.10;40.20;;;;;;485362;245;2140;-51
2022/09/25 07:56:09;;;;;;;;;;;21.10;40.20;;;;;;485285;245;1359;-50
2022/09/25 07:58:10;;;;;;;;;;;21.10;40.20;;;;;;485309;245;1230;-51
2022/09/25 08:00:12;;;;;;;;;;;21.10;40.10;;;;;;485278;245;1268;-50
2022/09/25 08:02:13;;;;;;;;;;;21.00;40.10;;;;;;485573;245;1412;-51
2022/09/25 08:04:14;;;;;;;;;;;21.10;40.10;;;;;;485765;245;1311;-50
2022/09/25 08:06:16;;;;;;;;;;;21.10;40.20;;;;;;485609;245;1343;-50
2022/09/25 08:08:17;;;;;;;;;;;21.10;40.10;;;;;;485766;245;1363;-51
2022/09/25 08:10:18;;;;;;;;;;;21.10;40.00;;;;;;485594;245;1328;-51
2022/09/25 08:12:22;;;;;;;;;;;21.10;40.00;;;;;;485335;245;1215;-50
2022/09/25 08:14:21;;;;;;;;;;;21.10;40.00;;;;;;485539;246;2161;-51
2022/09/25 08:16:23;;;;;;;;;;;21.10;40.10;;;;;;485685;245;1255;-50
2022/09/25 08:18:24;;;;;;;;;;;21.10;40.00;;;;;;485560;245;1241;-51
2022/09/25 08:20:25;;;;;;;;;;;21.10;40.00;;;;;;485784;245;1346;-50
2022/09/25 08:22:26;;;;;;;;;;;21.10;40.00;;;;;;485338;245;1371;-51
2022/09/25 08:24:28;;;;;;;;;;;21.10;40.00;;;;;;485333;245;1241;-51
2022/09/25 08:26:30;;;;;;;;;;;21.10;39.90;;;;;;485551;245;1283;-51
2022/09/25 08:28:30;;;;;;;;;;;21.10;39.90;;;;;;485258;245;1316;-51
2022/09/25 08:30:32;;;;;;;;;;;21.10;39.80;;;;;;485717;245;1223;-51
2022/09/25 08:32:33;;;;;;;;;;;21.10;39.90;;;;;;485671;245;1341;-50
2022/09/25 08:34:35;;;;;;;;;;;21.10;39.80;;;;;;485422;245;2156;-51
2022/09/25 08:36:36;;;;;;;;;;;21.10;39.90;;;;;;485297;245;1706;-51
2022/09/25 08:38:37;;;;;;;;;;;21.10;39.80;;;;;;485315;245;1221;-50
2022/09/25 08:40:39;;;;;;;;;;;21.10;39.80;;;;;;485575;245;1344;-51
2022/09/25 08:42:40;;;;;;;;;;;21.00;39.80;;;;;;485337;245;1205;-50
2022/09/25 08:44:41;;;;;;;;;;;21.10;39.90;;;;;;485443;245;1336;-50
2022/09/25 08:49:03;;;;;;;;;;;21.10;39.90;;;;;;485296;246;1251;-51
2022/09/25 08:51:05;;;;;;;;;;;21.10;39.80;;;;;;485245;246;1685;-50
2022/09/25 08:53:06;;;;;;;;;;;21.10;39.80;;;;;;485626;245;1294;-50
2022/09/25 08:55:08;;;;;;;;;;;21.10;39.80;;;;;;485750;245;2143;-50
2022/09/25 08:57:09;;;;;;;;;;;21.10;39.90;;;;;;485497;245;1282;-50
2022/09/25 08:59:11;;;;;;;;;;;21.10;40.00;;;;;;485282;245;1495;-50
2022/09/25 09:01:12;;;;;;;;;;;21.10;39.90;;;;;;485264;245;1331;-51
2022/09/25 09:03:13;;;;;;;;;;;21.00;39.80;;;;;;485512;245;1263;-50
2022/09/25 09:05:15;;;;;;;;;;;21.10;39.90;;;;;;485309;245;1311;-50
2022/09/25 09:07:16;;;;;;;;;;;21.00;39.80;;;;;;485744;245;1329;-51
2022/09/25 09:09:17;;;;;;;;;;;21.00;39.80;;;;;;485592;245;1272;-51
2022/09/25 09:11:19;;;;;;;;;;;21.10;39.80;;;;;;485716;245;1335;-51
2022/09/25 09:13:20;;;;;;;;;;;21.10;39.80;;;;;;485767;245;1469;-51
2022/09/25 09:15:21;;;;;;;;;;;21.10;39.80;;;;;;485607;245;2202;-51
2022/09/25 09:17:23;;;;;;;;;;;21.00;39.70;;;;;;485732;245;1277;-51
2022/09/25 09:19:24;;;;;;;;;;;21.10;39.70;;;;;;485307;245;1540;-50
2022/09/25 09:21:25;;;;;;;;;;;21.10;39.80;;;;;;485309;245;1260;-50
2022/09/25 09:23:27;;;;;;;;;;;21.10;39.70;;;;;;485751;245;1242;-51
2022/09/25 09:25:28;;;;;;;;;;;21.00;39.60;;;;;;485765;245;1252;-50
2022/09/25 09:27:29;;;;;;;;;;;21.10;39.70;;;;;;485345;245;1304;-50
2022/09/25 09:29:31;;;;;;;;;;;21.10;39.70;;;;;;485472;245;1233;-52
2022/09/25 09:31:32;;;;;;;;;;;21.10;39.60;;;;;;485479;245;2278;-50
2022/09/25 09:33:33;;;;;;;;;;;21.10;39.70;;;;;;485292;245;1188;-51
2022/09/25 09:35:35;;;;;;;;;;;21.00;39.70;;;;;;485294;245;2188;-50
2022/09/25 09:37:36;;;;;;;;;;;21.00;39.60;;;;;;485696;245;1266;-50
2022/09/25 09:39:37;;;;;;;;;;;21.00;39.60;;;;;;485510;245;1275;-51
2022/09/25 09:41:39;;;;;;;;;;;21.00;39.70;;;;;;485319;245;1367;-50
2022/09/25 09:43:42;;;;;;;;;;;21.00;39.60;;;;;;485723;245;1245;-50
2022/09/25 09:45:43;;;;;;;;;;;21.00;39.60;;;;;;485640;245;1896;-50
2022/09/25 09:47:43;;;;;;;;;;;21.00;39.60;;;;;;485640;246;2402;-51
2022/09/25 09:49:44;;;;;;;;;;;21.00;39.60;;;;;;485542;245;1399;-50
2022/09/25 09:51:45;;;;;;;;;;;21.00;39.60;;;;;;485767;245;1367;-50
2022/09/25 09:53:46;;;;;;;;;;;21.00;39.50;;;;;;485557;245;1260;-50
2022/09/25 09:55:48;;;;;;;;;;;21.00;39.50;;;;;;485327;245;2207;-51
2022/09/25 09:57:50;;;;;;;;;;;21.00;39.50;;;;;;485554;245;1286;-51
2022/09/25 09:59:51;;;;;;;;;;;21.00;39.50;;;;;;485317;245;1281;-51
2022/09/25 10:01:52;;;;;;;;;;;21.00;39.50;;;;;;485752;245;1241;-50
2022/09/25 10:03:53;;;;;;;;;;;21.00;39.50;;;;;;485513;245;1234;-50
2022/09/25 10:05:54;;;;;;;;;;;21.00;39.60;;;;;;485699;245;1287;-51
2022/09/25 10:07:56;;;;;;;;;;;21.00;39.60;;;;;;485327;245;1306;-50
2022/09/25 10:09:57;;;;;;;;;;;21.00;39.60;;;;;;485707;245;1365;-50
2022/09/25 10:11:59;;;;;;;;;;;21.00;39.60;;;;;;485786;245;1256;-51
2022/09/25 10:14:00;;;;;;;;;;;21.10;39.60;;;;;;485297;245;1290;-50
2022/09/25 10:16:02;;;;;;;;;;;21.00;39.60;;;;;;485740;245;2194;-51
2022/09/25 10:18:04;;;;;;;;;;;21.00;39.60;;;;;;485424;245;1246;-50
2022/09/25 10:20:05;;;;;;;;;;;21.00;39.60;;;;;;485704;245;1283;-51
2022/09/25 10:22:06;;;;;;;;;;;21.00;39.60;;;;;;485734;245;1311;-50
2022/09/25 10:24:07;;;;;;;;;;;21.10;39.70;;;;;;485772;245;1232;-50
2022/09/25 10:26:09;;;;;;;;;;;21.00;39.80;;;;;;485780;245;1322;-51
2022/09/25 10:28:10;;;;;;;;;;;21.00;40.00;;;;;;485436;245;1375;-51
2022/09/25 10:30:12;;;;;;;;;;;21.00;40.10;;;;;;485420;245;1354;-51
2022/09/25 10:32:14;;;;;;;;;;;21.00;40.30;;;;;;485282;245;1199;-50
2022/09/25 10:34:15;;;;;;;;;;;21.00;40.30;;;;;;485459;246;1885;-51
2022/09/25 10:36:16;;;;;;;;;;;21.00;40.40;;;;;;485312;245;2187;-51
2022/09/25 10:38:17;;;;;;;;;;;20.90;40.40;;;;;;485356;245;1296;-51
2022/09/25 10:40:18;;;;;;;;;;;21.00;40.60;;;;;;485483;245;1466;-51
2022/09/25 10:42:21;;;;;;;;;;;20.90;40.50;;;;;;485764;245;1329;-51
2022/09/25 10:44:22;;;;;;;;;;;21.00;40.70;;;;;;485287;245;2199;-51
2022/09/25 10:50:09;;;;;;;;;;;21.00;40.70;;;;;;485343;245;1301;-51
2022/09/25 10:50:44;;;;;;;;;;;21.00;40.70;;;;;;485775;246;1317;-51
2022/09/25 10:52:46;;;;;;;;;;;21.00;40.80;;;;;;485802;245;1248;-51
2022/09/25 10:54:47;;;;;;;;;;;20.90;40.80;;;;;;485336;245;2170;-50
2022/09/25 10:56:49;;;;;;;;;;;21.00;40.80;;;;;;485772;245;2123;-51
2022/09/25 10:58:50;;;;;;;;;;;20.90;40.90;;;;;;485286;245;2420;-51
2022/09/25 11:00:52;;;;;;;;;;;20.90;40.80;;;;;;485370;245;1135;-51
2022/09/25 11:02:53;;;;;;;;;;;21.00;40.90;;;;;;485806;245;2295;-51
2022/09/25 11:04:54;;;;;;;;;;;21.00;40.90;;;;;;485331;245;1103;-51
2022/09/25 11:06:56;;;;;;;;;;;20.90;40.90;;;;;;485816;245;1080;-50
2022/09/25 11:08:57;;;;;;;;;;;20.90;40.90;;;;;;485450;246;1551;-50
2022/09/25 11:10:59;;;;;;;;;;;20.90;41.00;;;;;;485828;245;1262;-50
2022/09/25 11:13:01;;;;;;;;;;;20.90;41.00;;;;;;485816;245;1260;-51
2022/09/25 11:15:01;;;;;;;;;;;20.90;41.00;;;;;;485312;245;2204;-51
2022/09/25 11:17:04;;;;;;;;;;;20.90;41.10;;;;;;485809;245;1328;-51
2022/09/25 11:19:05;;;;;;;;;;;21.00;41.10;;;;;;485355;245;1359;-51
2022/09/25 11:21:06;;;;;;;;;;;20.90;41.10;;;;;;485505;245;1313;-50
2022/09/25 11:23:07;;;;;;;;;;;20.90;41.10;;;;;;485314;245;1202;-51
2022/09/25 11:25:10;;;;;;;;;;;20.90;41.10;;;;;;485345;245;1279;-50
2022/09/25 11:27:11;;;;;;;;;;;21.00;41.20;;;;;;485792;245;1365;-51
2022/09/25 11:29:12;;;;;;;;;;;21.00;41.20;;;;;;485491;245;1296;-50
2022/09/25 11:31:13;;;;;;;;;;;21.00;41.20;;;;;;485647;245;1219;-51
2022/09/25 11:33:15;;;;;;;;;;;20.90;41.20;;;;;;485781;245;1345;-50
2022/09/25 11:35:16;;;;;;;;;;;20.90;41.20;;;;;;485696;245;2198;-51
2022/09/25 11:37:17;;;;;;;;;;;20.90;41.20;;;;;;485441;245;1276;-51
2022/09/25 11:41:39;;;;;;;;;;;20.90;41.20;;;;;;485316;246;1258;-50
2022/09/25 11:43:39;;;;;;;;;;;20.90;41.30;;;;;;485231;246;1421;-50
2022/09/25 11:45:41;;;;;;;;;;;20.90;41.40;;;;;;485288;245;1278;-49
2022/09/25 11:47:42;;;;;;;;;;;20.90;41.40;;;;;;485791;245;1316;-51
2022/09/25 11:49:43;;;;;;;;;;;20.90;41.40;;;;;;485350;245;1262;-51
2022/09/25 11:51:45;;;;;;;;;;;20.90;41.40;;;;;;485780;245;1400;-50
2022/09/25 11:53:46;;;;;;;;;;;20.90;41.40;;;;;;485500;245;1297;-50
2022/09/25 11:55:48;;;;;;;;;;;20.90;41.50;;;;;;485523;245;2195;-50
2022/09/25 11:57:49;;;;;;;;;;;20.90;41.40;;;;;;485328;245;1267;-51
2022/09/25 11:59:50;;;;;;;;;;;20.90;41.50;;;;;;485405;245;1648;-50
2022/09/25 12:01:51;;;;;;;;;;;20.90;41.50;;;;;;485576;245;1418;-51
2022/09/25 12:03:53;;;;;;;;;;;20.90;41.50;;;;;;485324;245;1281;-51
2022/09/25 12:05:54;;;;;;;;;;;21.00;41.50;;;;;;485742;245;1238;-51
2022/09/25 12:07:55;;;;;;;;;;;20.90;41.50;;;;;;485719;245;1292;-51
2022/09/25 12:09:57;;;;;;;;;;;21.00;41.50;;;;;;485735;245;1245;-51
2022/09/25 12:11:58;;;;;;;;;;;20.90;41.50;;;;;;485707;245;1267;-51
2022/09/25 12:14:02;;;;;;;;;;;20.90;41.60;;;;;;485650;245;1334;-50